sensor_id;sensor_type;location;lat;lon;timestamp;P1;durP1;ratioP1;P2;durP2;ratioP2
64186;SDS011;50491;39.484;-8.540;2023-03-14T15:56:37;6.60;;;1.13;;
64186;SDS011;50491;39.484;-8.540;2023-03-14T15:58:40;8.68;;;1.50;;
64186;SDS011;50491;39.484;-8.540;2023-03-14T16:01:00;4.50;;;1.20;;
64186;SDS011;50491;39.484;-8.540;2023-03-14T16:03:20;10.25;;;1.48;;
64186;SDS011;50491;39.484;-8.540;2023-03-14T16:05:47;4.30;;;1.30;;
64186;SDS011;50491;39.484;-8.540;2023-03-14T16:08:31;6.00;;;1.48;;
64186;SDS011;50491;39.484;-8.540;2023-03-14T16:10:33;8.32;;;1.63;;
64186;SDS011;50491;39.484;-8.540;2023-03-14T16:12:34;7.13;;;1.55;;
64186;SDS011;50491;39.484;-8.540;2023-03-14T16:14:53;6.95;;;0.98;;
64186;SDS011;50491;39.484;-8.540;2023-03-14T16:16:57;3.83;;;1.02;;
64186;SDS011;50491;39.484;-8.540;2023-03-14T16:19:00;2.28;;;0.82;;
64186;SDS011;50491;39.484;-8.540;2023-03-14T16:21:20;5.15;;;1.20;;
64186;SDS011;50491;39.484;-8.540;2023-03-14T16:23:21;5.53;;;2.05;;
64186;SDS011;50491;39.484;-8.540;2023-03-14T16:25:22;3.80;;;1.10;;
64186;SDS011;50491;39.484;-8.540;2023-03-14T16:27:22;3.38;;;1.27;;
64186;SDS011;50491;39.484;-8.540;2023-03-14T16:29:23;6.93;;;1.63;;
64186;SDS011;50491;39.484;-8.540;2023-03-14T16:31:42;9.05;;;1.35;;
64186;SDS011;50491;39.484;-8.540;2023-03-14T16:34:20;6.07;;;1.15;;
64186;SDS011;50491;39.484;-8.540;2023-03-14T16:36:39;4.70;;;1.08;;
64186;SDS011;50491;39.484;-8.540;2023-03-14T16:39:05;9.85;;;1.45;;
64186;SDS011;50491;39.484;-8.540;2023-03-14T16:41:26;7.55;;;1.48;;
64186;SDS011;50491;39.484;-8.540;2023-03-14T16:43:30;5.35;;;1.38;;
64186;SDS011;50491;39.484;-8.540;2023-03-14T16:45:33;4.10;;;0.88;;
64186;SDS011;50491;39.484;-8.540;2023-03-14T16:47:36;9.25;;;1.17;;
64186;SDS011;50491;39.484;-8.540;2023-03-14T16:49:55;8.50;;;1.35;;
64186;SDS011;50491;39.484;-8.540;2023-03-14T16:52:22;6.18;;;1.15;;
64186;SDS011;50491;39.484;-8.540;2023-03-14T16:54:22;4.68;;;0.90;;
64186;SDS011;50491;39.484;-8.540;2023-03-14T16:56:41;10.77;;;1.88;;
64186;SDS011;50491;39.484;-8.540;2023-03-14T16:59:02;6.72;;;1.08;;
64186;SDS011;50491;39.484;-8.540;2023-03-14T17:01:22;3.80;;;1.30;;
64186;SDS011;50491;39.484;-8.540;2023-03-14T17:03:44;9.63;;;1.33;;
64186;SDS011;50491;39.484;-8.540;2023-03-14T17:06:04;8.30;;;1.50;;
64186;SDS011;50491;39.484;-8.540;2023-03-14T17:08:23;7.88;;;1.48;;
64186;SDS011;50491;39.484;-8.540;2023-03-14T17:10:25;7.35;;;1.00;;
64186;SDS011;50491;39.484;-8.540;2023-03-14T17:12:26;6.10;;;1.20;;
64186;SDS011;50491;39.484;-8.540;2023-03-14T17:14:27;6.55;;;1.05;;
64186;SDS011;50491;39.484;-8.540;2023-03-14T17:16:54;4.35;;;1.10;;
64186;SDS011;50491;39.484;-8.540;2023-03-14T17:19:13;6.28;;;1.08;;
64186;SDS011;50491;39.484;-8.540;2023-03-14T17:21:39;19.25;;;2.28;;
64186;SDS011;50491;39.484;-8.540;2023-03-14T17:23:40;2.10;;;1.10;;
64186;SDS011;50491;39.484;-8.540;2023-03-14T17:25:42;9.88;;;1.95;;
64186;SDS011;50491;39.484;-8.540;2023-03-14T17:27:46;5.32;;;1.10;;
64186;SDS011;50491;39.484;-8.540;2023-03-14T17:29:47;3.58;;;1.02;;
64186;SDS011;50491;39.484;-8.540;2023-03-14T17:31:48;8.05;;;1.35;;
64186;SDS011;50491;39.484;-8.540;2023-03-14T17:33:50;7.53;;;1.50;;
64186;SDS011;50491;39.484;-8.540;2023-03-14T17:35:54;5.95;;;1.00;;
64186;SDS011;50491;39.484;-8.540;2023-03-14T17:37:55;4.88;;;1.45;;
64186;SDS011;50491;39.484;-8.540;2023-03-14T17:40:14;4.13;;;0.93;;
64186;SDS011;50491;39.484;-8.540;2023-03-14T17:42:33;6.10;;;1.70;;
64186;SDS011;50491;39.484;-8.540;2023-03-14T17:44:34;8.05;;;1.50;;
64186;SDS011;50491;39.484;-8.540;2023-03-14T17:46:35;5.10;;;1.65;;
64186;SDS011;50491;39.484;-8.540;2023-03-14T17:48:36;7.60;;;1.77;;
64186;SDS011;50491;39.484;-8.540;2023-03-14T17:50:37;6.22;;;1.73;;
64186;SDS011;50491;39.484;-8.540;2023-03-14T17:52:38;9.50;;;2.20;;
64186;SDS011;50491;39.484;-8.540;2023-03-14T17:54:39;4.43;;;2.17;;
64186;SDS011;50491;39.484;-8.540;2023-03-14T17:56:40;8.20;;;2.65;;
64186;SDS011;50491;39.484;-8.540;2023-03-14T17:59:01;10.18;;;2.78;;
64186;SDS011;50491;39.484;-8.540;2023-03-14T18:01:12;10.23;;;2.80;;
64186;SDS011;50491;39.484;-8.540;2023-03-14T18:03:14;7.85;;;2.67;;
64186;SDS011;50491;39.484;-8.540;2023-03-14T18:05:15;8.63;;;2.33;;
64186;SDS011;50491;39.484;-8.540;2023-03-14T18:07:17;5.85;;;2.40;;
64186;SDS011;50491;39.484;-8.540;2023-03-14T18:09:19;10.10;;;3.60;;
64186;SDS011;50491;39.484;-8.540;2023-03-14T18:11:39;6.32;;;2.33;;
64186;SDS011;50491;39.484;-8.540;2023-03-14T18:13:40;11.25;;;2.72;;
64186;SDS011;50491;39.484;-8.540;2023-03-14T18:15:42;4.72;;;2.22;;
64186;SDS011;50491;39.484;-8.540;2023-03-14T18:17:43;6.32;;;2.28;;
64186;SDS011;50491;39.484;-8.540;2023-03-14T18:19:44;7.20;;;2.05;;
64186;SDS011;50491;39.484;-8.540;2023-03-14T18:21:44;11.68;;;2.72;;
64186;SDS011;50491;39.484;-8.540;2023-03-14T18:23:46;5.05;;;2.47;;
64186;SDS011;50491;39.484;-8.540;2023-03-14T18:26:06;5.95;;;2.15;;
64186;SDS011;50491;39.484;-8.540;2023-03-14T18:28:07;13.63;;;2.72;;
64186;SDS011;50491;39.484;-8.540;2023-03-14T18:30:08;3.58;;;2.20;;
64186;SDS011;50491;39.484;-8.540;2023-03-14T18:32:09;5.07;;;2.10;;
64186;SDS011;50491;39.484;-8.540;2023-03-14T18:34:10;11.75;;;2.42;;
64186;SDS011;50491;39.484;-8.540;2023-03-14T18:36:11;7.13;;;2.60;;
64186;SDS011;50491;39.484;-8.540;2023-03-14T18:38:12;8.02;;;2.30;;
64186;SDS011;50491;39.484;-8.540;2023-03-14T18:40:13;8.82;;;2.63;;
64186;SDS011;50491;39.484;-8.540;2023-03-14T18:42:16;8.70;;;1.95;;
64186;SDS011;50491;39.484;-8.540;2023-03-14T18:44:17;9.38;;;2.97;;
64186;SDS011;50491;39.484;-8.540;2023-03-14T18:46:19;13.98;;;2.95;;
64186;SDS011;50491;39.484;-8.540;2023-03-14T18:48:39;11.73;;;2.97;;
64186;SDS011;50491;39.484;-8.540;2023-03-14T18:50:43;11.93;;;2.55;;
64186;SDS011;50491;39.484;-8.540;2023-03-14T18:53:02;11.23;;;2.67;;
64186;SDS011;50491;39.484;-8.540;2023-03-14T18:55:21;6.53;;;2.38;;
64186;SDS011;50491;39.484;-8.540;2023-03-14T18:57:37;8.07;;;2.05;;
64186;SDS011;50491;39.484;-8.540;2023-03-14T18:59:38;10.43;;;2.65;;
64186;SDS011;50491;39.484;-8.540;2023-03-14T19:01:38;19.02;;;2.53;;
64186;SDS011;50491;39.484;-8.540;2023-03-14T19:03:39;9.10;;;2.40;;
64186;SDS011;50491;39.484;-8.540;2023-03-14T19:08:00;8.10;;;2.60;;
64186;SDS011;50491;39.484;-8.540;2023-03-14T19:12:40;11.77;;;2.70;;
64186;SDS011;50491;39.484;-8.540;2023-03-14T19:17:00;15.45;;;3.25;;
64186;SDS011;50491;39.484;-8.540;2023-03-14T19:19:19;11.07;;;3.30;;
64186;SDS011;50491;39.484;-8.540;2023-03-14T19:21:27;17.65;;;3.22;;
64186;SDS011;50491;39.484;-8.540;2023-03-14T19:23:30;7.65;;;2.50;;
64186;SDS011;50491;39.484;-8.540;2023-03-14T19:25:32;11.70;;;3.80;;
64186;SDS011;50491;39.484;-8.540;2023-03-14T19:27:33;5.80;;;2.65;;
64186;SDS011;50491;39.484;-8.540;2023-03-14T19:29:53;11.48;;;2.65;;
64186;SDS011;50491;39.484;-8.540;2023-03-14T19:31:53;9.70;;;3.10;;
64186;SDS011;50491;39.484;-8.540;2023-03-14T19:33:54;9.20;;;3.35;;
64186;SDS011;50491;39.484;-8.540;2023-03-14T19:36:04;11.50;;;3.50;;
64186;SDS011;50491;39.484;-8.540;2023-03-14T19:38:05;14.90;;;3.00;;
64186;SDS011;50491;39.484;-8.540;2023-03-14T19:40:07;10.10;;;3.08;;
64186;SDS011;50491;39.484;-8.540;2023-03-14T19:42:11;6.60;;;2.83;;
64186;SDS011;50491;39.484;-8.540;2023-03-14T19:44:12;14.55;;;3.22;;
64186;SDS011;50491;39.484;-8.540;2023-03-14T19:46:31;9.10;;;3.15;;
64186;SDS011;50491;39.484;-8.540;2023-03-14T19:51:50;8.93;;;3.08;;
64186;SDS011;50491;39.484;-8.540;2023-03-14T19:53:52;9.00;;;3.63;;
64186;SDS011;50491;39.484;-8.540;2023-03-14T19:55:53;10.25;;;3.25;;
64186;SDS011;50491;39.484;-8.540;2023-03-14T19:57:53;8.88;;;3.00;;
64186;SDS011;50491;39.484;-8.540;2023-03-14T19:59:54;15.63;;;3.90;;
64186;SDS011;50491;39.484;-8.540;2023-03-14T20:02:13;9.13;;;3.38;;
64186;SDS011;50491;39.484;-8.540;2023-03-14T20:04:15;13.48;;;3.60;;
64186;SDS011;50491;39.484;-8.540;2023-03-14T20:06:15;8.57;;;3.40;;
64186;SDS011;50491;39.484;-8.540;2023-03-14T20:08:16;16.33;;;3.13;;
64186;SDS011;50491;39.484;-8.540;2023-03-14T20:10:18;12.55;;;3.17;;
64186;SDS011;50491;39.484;-8.540;2023-03-14T20:12:21;9.60;;;3.35;;
64186;SDS011;50491;39.484;-8.540;2023-03-14T20:14:22;17.20;;;4.00;;
64186;SDS011;50491;39.484;-8.540;2023-03-14T20:16:23;16.77;;;3.63;;
64186;SDS011;50491;39.484;-8.540;2023-03-14T20:18:25;17.55;;;3.70;;
64186;SDS011;50491;39.484;-8.540;2023-03-14T20:20:26;7.97;;;3.00;;
64186;SDS011;50491;39.484;-8.540;2023-03-14T20:22:26;18.77;;;3.28;;
64186;SDS011;50491;39.484;-8.540;2023-03-14T20:24:29;13.73;;;3.30;;
64186;SDS011;50491;39.484;-8.540;2023-03-14T20:26:31;11.00;;;3.17;;
64186;SDS011;50491;39.484;-8.540;2023-03-14T20:28:58;8.35;;;3.95;;
64186;SDS011;50491;39.484;-8.540;2023-03-14T20:30:59;10.23;;;4.18;;
64186;SDS011;50491;39.484;-8.540;2023-03-14T20:33:00;8.98;;;3.97;;
64186;SDS011;50491;39.484;-8.540;2023-03-14T20:35:03;10.65;;;3.78;;
64186;SDS011;50491;39.484;-8.540;2023-03-14T20:37:04;10.45;;;3.65;;
64186;SDS011;50491;39.484;-8.540;2023-03-14T20:39:05;13.15;;;4.18;;
64186;SDS011;50491;39.484;-8.540;2023-03-14T20:41:06;13.00;;;4.15;;
64186;SDS011;50491;39.484;-8.540;2023-03-14T20:43:08;10.45;;;3.20;;
64186;SDS011;50491;39.484;-8.540;2023-03-14T20:45:09;15.38;;;4.25;;
64186;SDS011;50491;39.484;-8.540;2023-03-14T20:47:10;11.45;;;3.95;;
64186;SDS011;50491;39.484;-8.540;2023-03-14T20:49:30;13.40;;;3.70;;
64186;SDS011;50491;39.484;-8.540;2023-03-14T20:53:56;10.13;;;4.13;;
64186;SDS011;50491;39.484;-8.540;2023-03-14T20:55:56;13.48;;;3.65;;
64186;SDS011;50491;39.484;-8.540;2023-03-14T20:57:57;13.48;;;4.60;;
64186;SDS011;50491;39.484;-8.540;2023-03-14T20:59:59;13.40;;;3.95;;
64186;SDS011;50491;39.484;-8.540;2023-03-14T21:02:00;12.10;;;3.60;;
64186;SDS011;50491;39.484;-8.540;2023-03-14T21:04:01;13.63;;;4.10;;
64186;SDS011;50491;39.484;-8.540;2023-03-14T21:06:01;18.30;;;3.70;;
64186;SDS011;50491;39.484;-8.540;2023-03-14T21:08:04;15.20;;;4.18;;
64186;SDS011;50491;39.484;-8.540;2023-03-14T21:10:06;15.18;;;4.20;;
64186;SDS011;50491;39.484;-8.540;2023-03-14T21:12:26;15.20;;;4.40;;
64186;SDS011;50491;39.484;-8.540;2023-03-14T21:14:44;17.52;;;4.65;;
64186;SDS011;50491;39.484;-8.540;2023-03-14T21:17:04;10.60;;;3.80;;
64186;SDS011;50491;39.484;-8.540;2023-03-14T21:21:44;14.20;;;3.95;;
64186;SDS011;50491;39.484;-8.540;2023-03-14T21:23:46;11.32;;;3.78;;
64186;SDS011;50491;39.484;-8.540;2023-03-14T21:25:48;20.77;;;4.30;;
64186;SDS011;50491;39.484;-8.540;2023-03-14T21:27:49;16.42;;;3.95;;
64186;SDS011;50491;39.484;-8.540;2023-03-14T21:29:50;15.68;;;3.95;;
64186;SDS011;50491;39.484;-8.540;2023-03-14T21:31:51;7.30;;;4.10;;
64186;SDS011;50491;39.484;-8.540;2023-03-14T21:36:30;13.10;;;4.63;;
64186;SDS011;50491;39.484;-8.540;2023-03-14T21:38:31;13.93;;;4.13;;
64186;SDS011;50491;39.484;-8.540;2023-03-14T21:40:32;23.48;;;4.47;;
64186;SDS011;50491;39.484;-8.540;2023-03-14T21:42:33;10.85;;;3.88;;
64186;SDS011;50491;39.484;-8.540;2023-03-14T21:44:34;11.10;;;3.58;;
64186;SDS011;50491;39.484;-8.540;2023-03-14T21:46:36;13.90;;;4.20;;
64186;SDS011;50491;39.484;-8.540;2023-03-14T21:48:37;16.65;;;3.85;;
64186;SDS011;50491;39.484;-8.540;2023-03-14T21:50:38;14.38;;;3.72;;
64186;SDS011;50491;39.484;-8.540;2023-03-14T21:52:38;10.57;;;4.30;;
64186;SDS011;50491;39.484;-8.540;2023-03-14T21:54:39;8.88;;;3.78;;
64186;SDS011;50491;39.484;-8.540;2023-03-14T21:56:43;17.42;;;4.05;;
64186;SDS011;50491;39.484;-8.540;2023-03-14T21:58:44;6.70;;;4.10;;
64186;SDS011;50491;39.484;-8.540;2023-03-14T22:00:46;9.68;;;2.92;;
64186;SDS011;50491;39.484;-8.540;2023-03-14T22:02:48;10.98;;;4.32;;
64186;SDS011;50491;39.484;-8.540;2023-03-14T22:04:52;15.50;;;3.90;;
64186;SDS011;50491;39.484;-8.540;2023-03-14T22:06:53;14.27;;;3.90;;
64186;SDS011;50491;39.484;-8.540;2023-03-14T22:09:13;15.48;;;3.70;;
64186;SDS011;50491;39.484;-8.540;2023-03-14T22:11:13;9.60;;;3.40;;
64186;SDS011;50491;39.484;-8.540;2023-03-14T22:13:14;15.68;;;3.88;;
64186;SDS011;50491;39.484;-8.540;2023-03-14T22:15:14;12.93;;;4.05;;
64186;SDS011;50491;39.484;-8.540;2023-03-14T22:17:15;8.82;;;3.80;;
64186;SDS011;50491;39.484;-8.540;2023-03-14T22:19:16;10.00;;;3.33;;
64186;SDS011;50491;39.484;-8.540;2023-03-14T22:21:16;11.50;;;3.22;;
64186;SDS011;50491;39.484;-8.540;2023-03-14T22:23:17;15.00;;;3.75;;
64186;SDS011;50491;39.484;-8.540;2023-03-14T22:25:18;12.23;;;3.28;;
64186;SDS011;50491;39.484;-8.540;2023-03-14T22:27:19;19.95;;;5.10;;
64186;SDS011;50491;39.484;-8.540;2023-03-14T22:29:20;10.38;;;3.72;;
64186;SDS011;50491;39.484;-8.540;2023-03-14T22:31:21;10.77;;;4.15;;
64186;SDS011;50491;39.484;-8.540;2023-03-14T22:33:22;19.98;;;4.50;;
64186;SDS011;50491;39.484;-8.540;2023-03-14T22:35:23;10.77;;;3.88;;
64186;SDS011;50491;39.484;-8.540;2023-03-14T22:37:23;10.70;;;3.85;;
64186;SDS011;50491;39.484;-8.540;2023-03-14T22:39:24;12.57;;;3.83;;
64186;SDS011;50491;39.484;-8.540;2023-03-14T22:41:26;9.30;;;3.22;;
64186;SDS011;50491;39.484;-8.540;2023-03-14T22:43:27;15.07;;;3.65;;
64186;SDS011;50491;39.484;-8.540;2023-03-14T22:45:28;18.38;;;4.78;;
64186;SDS011;50491;39.484;-8.540;2023-03-14T22:47:29;17.10;;;3.95;;
64186;SDS011;50491;39.484;-8.540;2023-03-14T22:49:30;22.08;;;4.47;;
64186;SDS011;50491;39.484;-8.540;2023-03-14T22:51:31;12.95;;;4.47;;
64186;SDS011;50491;39.484;-8.540;2023-03-14T22:53:31;16.77;;;4.88;;
64186;SDS011;50491;39.484;-8.540;2023-03-14T22:55:32;16.13;;;4.43;;
64186;SDS011;50491;39.484;-8.540;2023-03-14T22:57:33;19.20;;;3.67;;
64186;SDS011;50491;39.484;-8.540;2023-03-14T22:59:34;11.70;;;4.05;;
64186;SDS011;50491;39.484;-8.540;2023-03-14T23:01:34;26.35;;;5.05;;
64186;SDS011;50491;39.484;-8.540;2023-03-14T23:03:35;15.50;;;4.07;;
64186;SDS011;50491;39.484;-8.540;2023-03-14T23:05:35;11.07;;;3.47;;
64186;SDS011;50491;39.484;-8.540;2023-03-14T23:07:36;19.95;;;4.05;;
64186;SDS011;50491;39.484;-8.540;2023-03-14T23:09:37;12.65;;;4.10;;
64186;SDS011;50491;39.484;-8.540;2023-03-14T23:11:38;13.07;;;4.22;;
64186;SDS011;50491;39.484;-8.540;2023-03-14T23:13:39;9.68;;;3.78;;
64186;SDS011;50491;39.484;-8.540;2023-03-14T23:15:43;15.70;;;3.92;;
64186;SDS011;50491;39.484;-8.540;2023-03-14T23:17:44;11.50;;;3.80;;
64186;SDS011;50491;39.484;-8.540;2023-03-14T23:19:44;14.13;;;3.55;;
64186;SDS011;50491;39.484;-8.540;2023-03-14T23:21:45;10.23;;;3.90;;
64186;SDS011;50491;39.484;-8.540;2023-03-14T23:23:46;18.45;;;4.45;;
64186;SDS011;50491;39.484;-8.540;2023-03-14T23:25:46;14.43;;;3.90;;
64186;SDS011;50491;39.484;-8.540;2023-03-14T23:27:48;11.95;;;3.88;;
64186;SDS011;50491;39.484;-8.540;2023-03-14T23:29:53;10.93;;;4.40;;
64186;SDS011;50491;39.484;-8.540;2023-03-14T23:31:53;8.32;;;3.40;;
64186;SDS011;50491;39.484;-8.540;2023-03-14T23:33:54;12.90;;;3.83;;
64186;SDS011;50491;39.484;-8.540;2023-03-14T23:35:55;13.95;;;4.40;;
64186;SDS011;50491;39.484;-8.540;2023-03-14T23:37:55;14.93;;;3.88;;
64186;SDS011;50491;39.484;-8.540;2023-03-14T23:39:56;20.02;;;4.25;;
64186;SDS011;50491;39.484;-8.540;2023-03-14T23:41:57;16.63;;;3.38;;
64186;SDS011;50491;39.484;-8.540;2023-03-14T23:43:58;8.82;;;3.80;;
64186;SDS011;50491;39.484;-8.540;2023-03-14T23:46:00;9.88;;;3.85;;
64186;SDS011;50491;39.484;-8.540;2023-03-14T23:48:01;9.55;;;3.17;;
64186;SDS011;50491;39.484;-8.540;2023-03-14T23:50:02;9.88;;;3.95;;
64186;SDS011;50491;39.484;-8.540;2023-03-14T23:52:03;17.05;;;4.03;;
64186;SDS011;50491;39.484;-8.540;2023-03-14T23:54:04;16.67;;;3.95;;
64186;SDS011;50491;39.484;-8.540;2023-03-14T23:56:04;9.45;;;4.00;;
64186;SDS011;50491;39.484;-8.540;2023-03-14T23:58:05;15.48;;;3.47;;
